Time;durP1;ratioP1;P1;durP2;ratioP2;P2;SDS_P1;SDS_P2;PMS_P1;PMS_P2;Temp;Humidity;BMP_temperature;BMP_pressure;BME280_temperature;BME280_humidity;BME280_pressure;Samples;Min_cycle;Max_cycle;Signal;HPM_P1;HPM_P2
2022/07/27 00:00:04;;;;;;;19.02;14.00;;;;;;;20.83;53.22;96791.13;10230778;28;20051;-58
2022/07/27 00:05:38;;;;;;;18.95;14.50;;;;;;;20.82;53.10;96793.06;10217950;29;20055;-58
2022/07/27 00:10:57;;;;;;;18.33;15.02;;;;;;;20.80;53.30;96789.91;10218251;29;20062;-57
2022/07/27 00:16:17;;;;;;;18.33;14.55;;;;;;;20.81;53.36;96791.47;10217177;29;20396;-58
2022/07/27 00:21:37;;;;;;;17.20;14.57;;;;;;;20.80;53.50;96802.66;10229959;29;20559;-58
2022/07/27 00:26:57;;;;;;;17.20;14.80;;;;;;;20.81;53.60;96805.00;10204869;29;20389;-56
2022/07/27 00:32:16;;;;;;;17.75;14.85;;;;;;;20.80;53.41;96808.84;10217012;29;20068;-58
2022/07/27 00:37:35;;;;;;;18.02;14.55;;;;;;;20.81;53.63;96809.63;10216378;29;20519;-57
2022/07/27 00:42:55;;;;;;;17.45;14.85;;;;;;;20.81;53.66;96809.63;10216437;29;20063;-57
2022/07/27 00:48:14;;;;;;;16.90;14.10;;;;;;;20.81;53.84;96801.50;10216228;29;20114;-58
2022/07/27 00:53:34;;;;;;;17.83;14.15;;;;;;;20.81;53.83;96801.50;10216337;29;20082;-58
2022/07/27 00:58:54;;;;;;;19.20;14.80;;;;;;;20.80;53.98;96787.19;10201795;29;20048;-56
2022/07/27 01:04:14;;;;;;;18.10;14.55;;;;;;;20.80;54.03;96792.59;10193977;29;20059;-57
2022/07/27 01:15:12;;;;;;;17.83;13.48;;;;;;;20.79;54.04;96803.75;10215282;29;20062;-58
2022/07/27 01:20:32;;;;;;;16.42;13.07;;;;;;;20.79;54.05;96803.75;10227597;28;20059;-58
2022/07/27 01:25:52;;;;;;;15.65;12.55;;;;;;;20.78;53.97;96807.56;10215049;29;20059;-55
2022/07/27 01:31:11;;;;;;;14.63;12.68;;;;;;;20.76;53.85;96804.41;10214124;29;20673;-56
2022/07/27 01:36:30;;;;;;;14.68;12.40;;;;;;;20.76;53.99;96788.16;10212881;29;20118;-58
2022/07/27 01:41:50;;;;;;;16.17;12.63;;;;;;;20.77;53.93;96797.88;10212838;29;20142;-58
2022/07/27 01:47:09;;;;;;;15.48;11.98;;;;;;;20.73;53.93;96795.81;10213831;29;20086;-58
2022/07/27 01:52:28;;;;;;;14.05;12.02;;;;;;;20.73;53.88;96795.81;10226608;28;20048;-58
2022/07/27 01:57:48;;;;;;;14.88;11.50;;;;;;;20.72;54.08;96796.19;10213776;29;20058;-58
2022/07/27 02:03:08;;;;;;;14.52;11.60;;;;;;;20.72;54.05;96796.97;10212902;29;20067;-58
2022/07/27 02:08:28;;;;;;;15.60;11.52;;;;;;;20.72;54.21;96796.19;10226113;28;20051;-58
2022/07/27 02:13:48;;;;;;;15.15;11.52;;;;;;;20.71;54.26;96786.47;10196154;29;20067;-58
2022/07/27 02:19:07;;;;;;;14.45;11.80;;;;;;;20.70;54.13;96790.31;10212613;29;20044;-57
2022/07/27 02:24:26;;;;;;;13.27;10.90;;;;;;;20.69;54.28;96791.41;10212944;29;20086;-58
2022/07/27 02:29:46;;;;;;;14.98;11.25;;;;;;;20.68;54.27;96787.94;10212961;29;20059;-58
2022/07/27 02:35:06;;;;;;;15.20;11.23;;;;;;;20.69;54.31;96792.19;10225478;28;20133;-58
2022/07/27 02:40:25;;;;;;;15.55;11.65;;;;;;;20.68;54.42;96795.25;10225236;28;20063;-57
2022/07/27 02:45:44;;;;;;;15.13;12.95;;;;;;;20.69;54.44;96792.19;10218347;29;20059;-58
2022/07/27 02:51:03;;;;;;;16.30;13.10;;;;;;;20.67;54.47;96791.75;10224214;29;20051;-58
2022/07/27 02:56:23;;;;;;;18.27;13.48;;;;;;;20.67;54.52;96780.13;10212153;29;20067;-58
2022/07/27 03:01:43;;;;;;;18.38;13.95;;;;;;;20.67;54.67;96786.34;10211372;29;20515;-58
2022/07/27 03:07:02;;;;;;;20.25;14.57;;;;;;;20.67;54.61;96783.63;10212140;29;20060;-58
2022/07/27 03:12:21;;;;;;;20.50;14.38;;;;;;;20.67;54.72;96785.53;10224414;29;20500;-58
2022/07/27 03:17:41;;;;;;;21.50;15.20;;;;;;;20.66;54.70;96779.34;10211524;29;20071;-57
2022/07/27 03:23:00;;;;;;;20.30;16.27;;;;;;;20.65;54.71;96788.56;10211743;29;20341;-58
2022/07/27 03:28:19;;;;;;;22.55;17.38;;;;;;;20.65;54.69;96787.78;10211291;29;20055;-58
2022/07/27 03:33:39;;;;;;;22.75;17.10;;;;;;;20.63;54.85;96777.28;10216904;29;21657;-58
2022/07/27 03:38:58;;;;;;;24.65;18.13;;;;;;;20.65;54.74;96787.78;10211460;29;20055;-58
2022/07/27 03:44:18;;;;;;;23.42;18.25;;;;;;;20.62;54.85;96783.84;10211629;29;20063;-58
2022/07/27 03:49:37;;;;;;;25.08;19.30;;;;;;;20.62;54.92;96786.56;10211333;29;20044;-58
2022/07/27 03:54:56;;;;;;;24.45;18.02;;;;;;;20.63;54.85;96785.41;10200183;29;20119;-57
2022/07/27 04:00:15;;;;;;;22.63;18.77;;;;;;;20.62;54.92;96786.56;10200070;29;20075;-58
2022/07/27 04:05:35;;;;;;;25.38;19.23;;;;;;;20.61;54.88;96787.66;10217849;29;20071;-58
2022/07/27 04:10:54;;;;;;;26.08;18.55;;;;;;;20.63;55.04;96788.13;10218460;29;20055;-57
2022/07/27 04:16:13;;;;;;;24.15;17.73;;;;;;;20.61;54.95;96793.06;10217350;29;20070;-58
2022/07/27 04:21:36;;;;;;;23.75;18.05;;;;;;;20.63;55.12;96800.88;10217570;29;20059;-58
2022/07/27 04:26:55;;;;;;;25.70;18.92;;;;;;;20.63;55.04;96796.25;10217403;29;20065;-57
2022/07/27 04:32:14;;;;;;;24.30;18.90;;;;;;;20.63;55.16;96790.81;10217373;29;20063;-58
2022/07/27 04:37:34;;;;;;;23.13;17.23;;;;;;;20.63;55.03;96798.94;10216306;29;20111;-58
2022/07/27 04:42:53;;;;;;;26.33;17.92;;;;;;;20.62;55.16;96805.50;10216704;29;20190;-58
2022/07/27 04:48:13;;;;;;;20.38;16.88;;;;;;;20.61;55.04;96798.50;10227979;29;20072;-58
2022/07/27 04:53:33;;;;;;;22.13;17.20;;;;;;;20.60;54.93;96804.22;10217208;29;20055;-58
2022/07/27 04:58:54;;;;;;;19.10;15.63;;;;;;;20.62;55.01;96805.50;10204823;29;20423;-58
2022/07/27 05:04:13;;;;;;;19.05;14.73;;;;;;;20.62;55.17;96800.09;10215367;29;20087;-58
2022/07/27 05:09:32;;;;;;;19.25;14.70;;;;;;;20.65;55.13;96821.06;10215836;29;20066;-58
2022/07/27 05:14:51;;;;;;;19.20;14.40;;;;;;;20.65;55.23;96823.75;10214544;29;20478;-58
2022/07/27 05:20:11;;;;;;;17.40;13.52;;;;;;;20.64;55.11;96814.06;10214528;29;20067;-55
2022/07/27 05:25:31;;;;;;;19.85;13.85;;;;;;;20.64;55.21;96813.25;10227690;28;20603;-58
2022/07/27 05:30:50;;;;;;;15.90;12.40;;;;;;;20.63;55.15;96823.31;10214783;29;20075;-58
2022/07/27 05:36:10;;;;;;;17.30;13.27;;;;;;;20.64;55.33;96824.09;10203965;29;20075;-58
2022/07/27 05:41:29;;;;;;;16.05;12.95;;;;;;;20.63;55.36;96826.00;10214356;29;20063;-56
2022/07/27 05:46:49;;;;;;;18.67;14.27;;;;;;;20.62;55.44;96829.84;10210377;29;20071;-58
2022/07/27 05:52:08;;;;;;;18.83;14.00;;;;;;;20.63;55.47;96846.88;10213256;29;20067;-58
2022/07/27 05:57:27;;;;;;;18.33;13.55;;;;;;;20.61;55.46;96852.63;10213772;29;20059;-58
2022/07/27 06:02:47;;;;;;;24.33;14.40;;;;;;;20.61;55.51;96852.63;10213686;29;20070;-58
2022/07/27 06:08:08;;;;;;;16.85;12.52;;;;;;;20.59;55.55;96854.88;10226293;28;20059;-58
2022/07/27 06:13:27;;;;;;;16.67;12.90;;;;;;;20.59;55.75;96857.56;10212736;29;20512;-54
2022/07/27 06:18:47;;;;;;;15.35;12.63;;;;;;;20.59;55.57;96860.28;10212638;29;20056;-57
2022/07/27 06:24:06;;;;;;;19.75;12.95;;;;;;;20.60;55.65;96856.47;10225017;28;20043;-56
2022/07/27 06:29:27;;;;;;;17.33;11.82;;;;;;;20.60;55.63;96872.69;10225649;28;20055;-59
2022/07/27 06:34:46;;;;;;;16.60;11.63;;;;;;;20.61;55.62;96876.19;10213027;29;20064;-58
2022/07/27 06:40:07;;;;;;;13.85;10.57;;;;;;;20.61;55.85;96863.44;10197759;29;20511;-58
2022/07/27 06:45:26;;;;;;;15.43;11.80;;;;;;;20.64;55.77;96861.97;10230201;28;20055;-58
2022/07/27 06:50:47;;;;;;;13.82;11.50;;;;;;;20.64;55.90;96861.97;10201672;29;20071;-58
2022/07/27 06:56:07;;;;;;;17.48;11.18;;;;;;;20.65;56.06;96864.38;10201066;29;20055;-59
2022/07/27 07:01:26;;;;;;;15.77;10.90;;;;;;;20.65;56.02;96864.38;10212210;29;20070;-58
2022/07/27 07:06:45;;;;;;;15.45;10.55;;;;;;;20.65;56.25;96855.47;10197230;29;20064;-57
2022/07/27 07:12:06;;;;;;;12.65;10.15;;;;;;;20.66;56.17;96844.31;10200225;29;20051;-58
2022/07/27 07:17:25;;;;;;;11.60;9.25;;;;;;;20.67;56.05;96835.06;10216314;29;20060;-58
2022/07/27 07:22:45;;;;;;;11.25;9.25;;;;;;;20.67;56.09;96837.75;10212133;29;20063;-56
2022/07/27 07:28:06;;;;;;;10.23;8.52;;;;;;;20.66;56.12;96828.06;10211763;29;20052;-58
2022/07/27 07:33:26;;;;;;;13.13;10.23;;;;;;;20.67;56.02;96826.94;10224915;29;20099;-59
2022/07/27 07:38:46;;;;;;;16.08;10.52;;;;;;;20.67;56.20;96829.63;10217586;29;20055;-58
2022/07/27 07:44:07;;;;;;;12.80;9.77;;;;;;;20.68;56.08;96828.53;10219053;28;20428;-58
2022/07/27 07:49:27;;;;;;;13.02;10.00;;;;;;;20.68;55.94;96817.72;10209106;29;20059;-57
2022/07/27 07:54:46;;;;;;;12.63;9.35;;;;;;;20.68;56.08;96831.25;10231193;28;20060;-58
2022/07/27 08:00:08;;;;;;;11.32;8.98;;;;;;;20.68;55.94;96836.66;10218032;29;20056;-58
2022/07/27 08:05:34;;;;;;;10.55;8.35;;;;;;;20.67;56.11;96840.47;10218443;29;20056;-59
2022/07/27 08:10:53;;;;;;;11.05;9.05;;;;;;;20.69;56.22;96845.56;10217477;29;20500;-57
2022/07/27 08:16:13;;;;;;;10.57;9.00;;;;;;;20.69;56.25;96835.50;10217414;29;20074;-56
2022/07/27 08:21:32;;;;;;;10.52;8.82;;;;;;;20.70;56.31;96839.81;10227630;28;20484;-58
2022/07/27 08:26:52;;;;;;;11.18;8.60;;;;;;;20.70;56.29;96839.81;10229895;28;20055;-58
2022/07/27 08:32:11;;;;;;;11.38;8.23;;;;;;;20.71;56.34;96835.97;10229462;28;20508;-58
2022/07/27 08:37:30;;;;;;;10.88;8.05;;;;;;;20.71;56.45;96835.97;10216664;29;20078;-58
2022/07/27 08:42:49;;;;;;;9.35;7.13;;;;;;;20.71;56.53;96835.97;10229269;29;20055;-58
2022/07/27 08:48:12;;;;;;;9.73;7.30;;;;;;;20.72;56.54;96831.38;10227508;29;20059;-57
2022/07/27 08:53:32;;;;;;;9.70;7.85;;;;;;;20.72;56.57;96820.53;10228923;28;20051;-57
2022/07/27 08:58:52;;;;;;;10.18;7.95;;;;;;;20.73;56.76;96827.53;10217218;28;20055;-58
2022/07/27 09:04:11;;;;;;;9.40;7.45;;;;;;;20.73;56.63;96828.31;10228639;28;20500;-58
2022/07/27 09:09:44;;;;;;;9.52;7.38;;;;;;;20.74;56.37;96842.66;10215824;29;20066;-58
2022/07/27 09:15:03;;;;;;;10.18;7.03;;;;;;;20.73;55.98;96849.97;10204210;29;20736;-58
2022/07/27 09:20:22;;;;;;;9.80;6.88;;;;;;;20.73;55.65;96844.56;10215320;29;20059;-57
2022/07/27 09:25:42;;;;;;;7.78;6.70;;;;;;;20.72;55.35;96853.81;10215797;29;20393;-58
2022/07/27 09:31:11;;;;;;;7.30;6.32;;;;;;;20.72;55.06;96875.47;10214207;29;20064;-57
2022/07/27 09:36:31;;;;;;;8.13;5.88;;;;;;;20.72;55.07;96897.13;10214502;29;20111;-58
2022/07/27 09:41:53;;;;;;;8.43;5.97;;;;;;;20.72;55.12;96907.19;10214612;29;20063;-58
2022/07/27 09:47:29;;;;;;;6.22;5.10;;;;;;;20.73;55.22;96903.34;10225926;29;20122;-57
2022/07/27 09:52:48;;;;;;;6.57;5.10;;;;;;;20.73;55.31;96877.03;10214100;29;20059;-58
2022/07/27 09:58:08;;;;;;;5.25;4.32;;;;;;;20.74;55.47;96867.81;10226549;28;20058;-58
2022/07/27 10:03:27;;;;;;;6.07;4.57;;;;;;;20.76;55.56;96863.97;10213347;29;20060;-58
2022/07/27 10:08:49;;;;;;;6.85;4.90;;;;;;;20.76;55.62;96864.78;10206357;29;20492;-58
2022/07/27 10:14:08;;;;;;;5.47;4.63;;;;;;;20.76;55.58;96886.44;10213382;29;20059;-58
2022/07/27 10:19:49;;;;;;;5.72;4.65;;;;;;;20.75;55.63;96884.84;10195502;29;20055;-58
2022/07/27 10:25:08;;;;;;;5.75;4.07;;;;;;;20.77;55.69;96892.63;10205231;29;20055;-58
2022/07/27 10:30:28;;;;;;;10.50;4.93;;;;;;;20.77;55.83;96898.06;10213240;29;20127;-58
2022/07/27 10:35:47;;;;;;;16.13;7.03;;;;;;;20.79;55.91;96909.34;10198274;29;20082;-58
2022/07/27 10:41:26;;;;;;;12.10;5.80;;;;;;;20.78;56.06;96895.03;10212479;29;20074;-58
2022/07/27 10:46:57;;;;;;;11.85;6.53;;;;;;;20.80;56.27;96897.41;10224042;29;20059;-57
2022/07/27 10:52:40;;;;;;;13.02;5.93;;;;;;;20.80;56.55;96887.38;10212353;29;20131;-58
2022/07/27 10:58:08;;;;;;;10.93;6.18;;;;;;;20.81;56.70;96898.97;10211743;29;20079;-57
2022/07/27 11:03:32;;;;;;;11.90;4.80;;;;;;;20.81;56.94;96897.06;10211549;29;20079;-57
2022/07/27 11:08:55;;;;;;;8.88;4.35;;;;;;;20.82;56.96;96903.28;10202414;29;20051;-58
2022/07/27 11:14:15;;;;;;;6.47;3.58;;;;;;;20.83;56.82;96910.28;10218619;29;20535;-58
2022/07/27 11:19:34;;;;;;;6.40;3.60;;;;;;;20.83;56.77;96912.97;10219699;29;20059;-59
2022/07/27 11:24:54;;;;;;;5.88;2.95;;;;;;;20.84;56.68;96914.59;10231621;28;20407;-58
2022/07/27 11:30:25;;;;;;;7.50;2.83;;;;;;;20.85;56.52;96916.94;10219719;29;20056;-58
2022/07/27 11:35:56;;;;;;;4.68;2.42;;;;;;;20.84;56.30;96904.53;10218853;29;20495;-57
2022/07/27 11:41:26;;;;;;;3.88;2.15;;;;;;;20.85;56.34;96897.97;10209536;29;20055;-58
2022/07/27 11:46:49;;;;;;;3.80;1.98;;;;;;;20.85;56.09;96897.97;10224177;29;20427;-57
2022/07/27 11:52:09;;;;;;;4.32;1.83;;;;;;;20.86;55.82;96901.50;10224124;28;20048;-58
2022/07/27 11:57:31;;;;;;;3.22;1.77;;;;;;;20.85;55.51;96905.31;10217840;29;20059;-58
2022/07/27 12:02:50;;;;;;;3.10;1.67;;;;;;;20.87;55.20;96919.31;10218458;29;20056;-58
2022/07/27 12:08:10;;;;;;;3.78;1.60;;;;;;;20.88;54.95;96926.34;10218201;29;20063;-58
2022/07/27 12:13:34;;;;;;;4.55;1.73;;;;;;;20.87;54.71;96909.28;10230604;28;20056;-56
2022/07/27 12:18:54;;;;;;;2.80;1.50;;;;;;;20.88;54.39;96920.91;10216859;29;20059;-58
2022/07/27 12:24:14;;;;;;;3.17;1.40;;;;;;;20.86;54.56;96917.75;10216322;29;20060;-58
2022/07/27 12:29:53;;;;;;;3.45;1.65;;;;;;;20.86;54.54;96915.03;10205313;29;20063;-58
2022/07/27 12:35:16;;;;;;;3.75;1.90;;;;;;;20.86;54.36;96923.16;10216802;29;20060;-58
2022/07/27 12:40:55;;;;;;;5.38;1.88;;;;;;;20.86;53.81;96917.75;10216569;29;20063;-58
2022/07/27 12:46:15;;;;;;;8.27;2.25;;;;;;;20.86;53.75;96920.47;10216517;29;20067;-58
2022/07/27 12:51:35;;;;;;;5.07;2.10;;;;;;;20.85;53.98;96910.72;10215629;29;20056;-58
2022/07/27 12:56:54;;;;;;;5.85;2.33;;;;;;;20.84;53.68;96920.78;10216373;29;20063;-58
2022/07/27 13:02:13;;;;;;;5.25;2.13;;;;;;;20.83;53.97;96924.59;10205924;29;20078;-56
2022/07/27 13:07:34;;;;;;;6.65;2.67;;;;;;;20.83;53.38;96945.47;10215853;29;20567;-58
2022/07/27 13:12:53;;;;;;;2.90;1.90;;;;;;;20.82;52.81;96933.84;10215374;29;20111;-58
2022/07/27 13:18:13;;;;;;;5.38;2.40;;;;;;;20.82;53.34;96927.66;10215766;29;20087;-57
2022/07/27 13:23:32;;;;;;;5.95;2.17;;;;;;;20.82;53.47;96919.53;10215262;29;20460;-58
2022/07/27 13:28:52;;;;;;;5.13;2.47;;;;;;;20.81;53.51;96918.72;10215009;29;20060;-58
2022/07/27 13:34:11;;;;;;;6.47;2.72;;;;;;;20.82;53.39;96922.25;10227194;28;20081;-58
2022/07/27 13:39:31;;;;;;;6.20;3.35;;;;;;;20.81;53.36;96932.25;10216182;28;20048;-56
2022/07/27 13:44:51;;;;;;;6.43;3.40;;;;;;;20.82;53.53;96943.91;10227193;29;20048;-58
2022/07/27 13:50:12;;;;;;;6.60;3.90;;;;;;;20.81;53.29;96934.97;10210751;29;20064;-58
2022/07/27 13:55:31;;;;;;;8.60;3.85;;;;;;;20.83;53.30;96945.47;10214066;29;20112;-57
2022/07/27 14:00:50;;;;;;;6.15;3.70;;;;;;;20.85;53.17;96954.84;10213719;29;20056;-58
2022/07/27 14:06:10;;;;;;;8.25;3.90;;;;;;;20.84;53.09;96937.03;10213253;29;20570;-58
2022/07/27 14:11:29;;;;;;;8.55;4.05;;;;;;;20.85;53.19;96940.53;10213377;29;20060;-58
2022/07/27 14:16:49;;;;;;;6.43;3.42;;;;;;;20.85;53.29;96943.22;10212628;29;20051;-58
2022/07/27 14:22:09;;;;;;;5.88;3.47;;;;;;;20.86;53.19;96942.13;10213338;29;20110;-58
2022/07/27 14:27:29;;;;;;;5.55;3.55;;;;;;;20.87;53.43;96938.28;10212244;29;20056;-58
2022/07/27 14:32:49;;;;;;;4.93;3.25;;;;;;;20.87;53.37;96936.34;10212844;29;20059;-58
2022/07/27 14:38:09;;;;;;;5.85;2.80;;;;;;;20.88;53.55;96920.91;10197794;29;20063;-57
2022/07/27 14:43:29;;;;;;;8.30;3.60;;;;;;;20.89;53.61;96927.91;10225624;28;20408;-58
2022/07/27 14:48:48;;;;;;;5.70;3.15;;;;;;;20.89;53.66;96922.50;10211580;29;20107;-58
2022/07/27 14:54:08;;;;;;;8.20;3.78;;;;;;;20.89;53.64;96923.28;10211743;29;20055;-58
2022/07/27 14:59:27;;;;;;;9.52;4.13;;;;;;;20.91;53.60;96925.66;10212207;29;20078;-58
2022/07/27 15:04:47;;;;;;;6.93;4.65;;;;;;;20.92;53.71;96913.72;10207763;29;20067;-58
2022/07/27 15:10:07;;;;;;;9.20;4.57;;;;;;;20.92;53.46;96906.38;10219375;29;20116;-58
2022/07/27 15:15:27;;;;;;;8.30;4.68;;;;;;;20.95;53.39;96913.03;10207658;29;20063;-58
2022/07/27 15:20:46;;;;;;;7.80;4.82;;;;;;;20.96;52.99;96917.34;10206917;29;20403;-58
2022/07/27 15:26:06;;;;;;;8.20;4.45;;;;;;;20.98;52.94;96904.28;10211954;29;20060;-58
2022/07/27 15:31:26;;;;;;;6.60;4.53;;;;;;;21.00;52.74;96899.31;10211427;29;20060;-57
2022/07/27 15:36:46;;;;;;;8.77;5.20;;;;;;;21.01;52.70;96908.22;10217377;29;20055;-58
2022/07/27 15:42:06;;;;;;;7.45;5.13;;;;;;;21.02;52.68;96899.00;10224292;29;20052;-58
2022/07/27 15:47:26;;;;;;;8.18;5.18;;;;;;;21.02;52.57;96905.19;10218785;29;20059;-58
2022/07/27 15:52:47;;;;;;;7.13;5.22;;;;;;;21.04;52.49;96899.44;10223954;29;20408;-58
2022/07/27 15:58:06;;;;;;;8.23;5.63;;;;;;;21.05;52.36;96911.84;10226830;28;20059;-58
2022/07/27 16:03:26;;;;;;;10.07;6.10;;;;;;;21.07;52.40;96909.59;10218064;29;20059;-57
2022/07/27 16:08:46;;;;;;;9.38;5.55;;;;;;;21.07;52.17;96905.00;10218457;29;20056;-58
2022/07/27 16:14:05;;;;;;;9.70;6.05;;;;;;;21.04;52.20;96902.94;10230297;28;20051;-58
2022/07/27 16:19:24;;;;;;;11.05;5.75;;;;;;;21.04;52.37;96894.81;10214103;29;20066;-58
2022/07/27 16:24:43;;;;;;;12.00;5.82;;;;;;;21.05;52.04;96887.47;10217743;29;20067;-58
2022/07/27 16:30:03;;;;;;;8.60;5.30;;;;;;;21.07;51.92;96891.47;10216490;29;20048;-57
2022/07/27 16:35:25;;;;;;;10.13;5.68;;;;;;;21.10;51.80;96890.00;10217091;29;20060;-58
2022/07/27 16:40:45;;;;;;;9.23;5.63;;;;;;;21.11;51.88;96891.56;10217263;28;20059;-57
2022/07/27 16:46:05;;;;;;;12.63;6.10;;;;;;;21.11;51.76;96896.97;10228050;29;20059;-58
2022/07/27 16:51:24;;;;;;;8.38;5.38;;;;;;;21.12;51.66;96901.28;10216667;29;20119;-58
2022/07/27 16:56:44;;;;;;;9.93;5.85;;;;;;;21.13;51.70;96884.72;10216292;29;20051;-58
2022/07/27 17:02:04;;;;;;;9.90;5.88;;;;;;;21.12;51.62;96883.09;10208154;29;20052;-58
2022/07/27 17:07:23;;;;;;;12.57;6.35;;;;;;;21.12;51.45;96888.53;10228384;29;20120;-58
2022/07/27 17:12:43;;;;;;;10.40;6.20;;;;;;;21.13;51.38;96883.94;10227936;28;20519;-58
2022/07/27 17:18:03;;;;;;;11.60;7.00;;;;;;;21.13;51.41;96894.75;10209412;29;20091;-58
2022/07/27 17:23:22;;;;;;;12.30;6.97;;;;;;;21.12;51.51;96899.38;10207799;29;20067;-58
2022/07/27 17:28:42;;;;;;;11.15;7.18;;;;;;;21.12;51.52;96899.38;10215091;29;20055;-58
2022/07/27 17:34:01;;;;;;;11.57;7.82;;;;;;;21.09;51.71;96902.75;10214943;29;20063;-57
2022/07/27 17:39:21;;;;;;;11.60;8.15;;;;;;;21.08;51.79;96903.88;10214600;29;20126;-58
2022/07/27 17:44:40;;;;;;;12.25;7.95;;;;;;;21.08;52.18;96897.66;10218700;29;20095;-58
2022/07/27 17:49:59;;;;;;;15.70;7.97;;;;;;;21.06;52.12;96895.28;10232139;28;20058;-57
2022/07/27 17:55:18;;;;;;;13.27;8.27;;;;;;;21.06;52.35;96910.75;10214417;29;20075;-58
2022/07/27 18:00:37;;;;;;;15.05;9.05;;;;;;;21.04;52.20;96919.19;10213982;29;20119;-58
2022/07/27 18:05:59;;;;;;;14.23;8.48;;;;;;;21.04;52.50;96916.47;10213745;29;20056;-58
2022/07/27 18:11:18;;;;;;;12.15;8.43;;;;;;;21.03;52.51;96922.22;10212994;29;20056;-58
2022/07/27 18:16:37;;;;;;;15.18;8.80;;;;;;;21.02;52.60;96937.69;10211517;29;20055;-56
2022/07/27 18:21:57;;;;;;;12.30;8.77;;;;;;;21.02;52.86;96931.50;10224836;29;20408;-58
2022/07/27 18:27:16;;;;;;;13.07;8.82;;;;;;;21.01;52.98;96941.53;10212914;29;20095;-56
2022/07/27 18:32:35;;;;;;;14.65;8.45;;;;;;;21.00;51.80;96953.47;10215412;28;20056;-58
2022/07/27 18:37:55;;;;;;;13.68;7.57;;;;;;;20.97;50.83;96956.84;10212751;29;20056;-56
2022/07/27 18:43:15;;;;;;;11.73;7.80;;;;;;;20.92;50.32;96967.88;10212580;29;20063;-58
2022/07/27 18:48:34;;;;;;;12.48;7.25;;;;;;;20.89;49.95;96971.22;10224581;29;20059;-57
2022/07/27 18:53:54;;;;;;;11.18;7.03;;;;;;;20.83;49.67;96976.03;10211961;29;20085;-58
2022/07/27 18:59:14;;;;;;;10.48;6.80;;;;;;;20.78;49.16;96984.38;10224831;29;20118;-58
2022/07/27 19:04:34;;;;;;;11.30;6.88;;;;;;;20.72;48.86;96993.81;10211875;29;20063;-58
2022/07/27 19:09:53;;;;;;;10.18;6.68;;;;;;;20.66;48.92;96995.91;10212003;29;20047;-58
2022/07/27 19:15:13;;;;;;;10.18;6.28;;;;;;;20.64;48.95;97010.88;10204973;29;20060;-58
2022/07/27 19:20:32;;;;;;;9.85;6.78;;;;;;;20.60;48.74;97013.44;10212113;29;20066;-58
2022/07/27 19:25:58;;;;;;;11.13;6.85;;;;;;;20.54;48.61;97017.41;10212098;29;20468;-57
2022/07/27 19:31:17;;;;;;;10.35;6.75;;;;;;;20.52;48.67;97022.34;10200848;29;20515;-58
2022/07/27 19:36:36;;;;;;;11.35;6.95;;;;;;;20.46;48.18;97024.44;10232558;28;20123;-57
2022/07/27 19:41:56;;;;;;;11.55;6.75;;;;;;;20.40;47.99;97041.19;10232114;28;20070;-57
2022/07/27 19:47:15;;;;;;;9.35;6.82;;;;;;;20.34;48.27;97035.16;10218911;29;20139;-58
2022/07/27 19:52:35;;;;;;;11.68;7.18;;;;;;;20.31;48.20;97039.31;10219719;28;20062;-58
2022/07/27 19:57:55;;;;;;;12.80;7.18;;;;;;;20.25;48.06;97040.59;10218861;29;20063;-57
2022/07/27 20:03:16;;;;;;;10.45;6.85;;;;;;;20.23;48.39;97045.53;10218702;29;20070;-57
2022/07/27 20:08:36;;;;;;;12.25;7.15;;;;;;;20.30;48.74;97047.75;10218075;29;20048;-57
2022/07/27 20:13:57;;;;;;;10.27;6.93;;;;;;;20.37;48.78;97055.38;10217874;29;20416;-58
2022/07/27 20:19:17;;;;;;;10.90;6.85;;;;;;;20.43;48.72;97059.50;10217236;29;20090;-58
2022/07/27 20:24:36;;;;;;;9.55;6.45;;;;;;;20.46;48.64;97056.91;10216245;29;20066;-58
2022/07/27 20:29:55;;;;;;;8.52;6.30;;;;;;;20.46;48.67;97056.91;10219611;29;20058;-58
2022/07/27 20:35:16;;;;;;;11.75;7.25;;;;;;;20.47;48.62;97058.50;10217625;29;20060;-58
2022/07/27 20:40:35;;;;;;;10.27;6.70;;;;;;;20.45;48.50;97060.75;10229662;29;20514;-58
2022/07/27 20:45:54;;;;;;;12.18;7.03;;;;;;;20.47;48.47;97057.72;10228521;29;20056;-58
2022/07/27 20:51:13;;;;;;;10.23;6.55;;;;;;;20.46;48.51;97059.63;10202577;29;20055;-57
2022/07/27 20:56:32;;;;;;;11.10;6.57;;;;;;;20.45;48.52;97060.75;10216101;29;20064;-58
2022/07/27 21:01:52;;;;;;;10.80;6.82;;;;;;;20.45;48.37;97055.34;10225453;28;20056;-57
2022/07/27 21:07:12;;;;;;;11.75;6.70;;;;;;;20.44;48.36;97061.84;10228731;28;20055;-57
2022/07/27 21:12:32;;;;;;;10.18;7.05;;;;;;;20.43;48.34;97067.63;10215744;29;20067;-58
2022/07/27 21:17:51;;;;;;;10.43;6.63;;;;;;;20.43;48.23;97073.03;10215099;29;20063;-58
2022/07/27 21:28:49;;;;;;;9.65;6.60;;;;;;;20.40;48.18;97073.66;10229126;28;20063;-58
2022/07/27 21:34:08;;;;;;;10.85;6.93;;;;;;;20.36;48.03;97084.31;10214689;29;20063;-58
2022/07/27 21:39:28;;;;;;;11.30;6.72;;;;;;;20.35;48.32;97085.47;10214044;29;20056;-58
2022/07/27 21:44:48;;;;;;;11.40;6.88;;;;;;;20.35;48.22;97093.56;10214775;29;20453;-58
2022/07/27 21:50:08;;;;;;;11.95;7.03;;;;;;;20.33;47.95;97088.47;10227112;28;20054;-58
2022/07/27 21:55:27;;;;;;;11.48;6.90;;;;;;;20.32;47.98;97086.09;10199700;29;20055;-58
2022/07/27 22:00:47;;;;;;;10.75;7.03;;;;;;;20.31;47.99;97088.00;10214214;29;20056;-58
2022/07/27 22:06:06;;;;;;;11.02;6.90;;;;;;;20.31;48.03;97081.81;10213912;29;20059;-58
2022/07/27 22:11:26;;;;;;;10.10;7.15;;;;;;;20.30;47.91;97078.28;10226413;28;20447;-58
2022/07/27 22:16:45;;;;;;;9.48;6.82;;;;;;;20.29;47.97;97081.34;10202173;29;20093;-58
2022/07/27 22:22:04;;;;;;;11.95;6.88;;;;;;;20.29;47.91;97089.44;10212669;29;20059;-56
2022/07/27 22:27:24;;;;;;;12.85;7.18;;;;;;;20.27;47.83;97092.47;10213393;29;20063;-57
2022/07/27 22:32:44;;;;;;;10.65;6.68;;;;;;;20.27;47.77;97097.09;10213260;29;20063;-58
2022/07/27 22:38:03;;;;;;;11.32;7.03;;;;;;;20.24;47.77;97095.81;10225680;28;20048;-58
2022/07/27 22:43:23;;;;;;;11.00;6.78;;;;;;;20.23;48.01;97101.53;10212975;29;20060;-58
2022/07/27 22:48:42;;;;;;;12.40;7.00;;;;;;;20.23;47.86;97096.94;10224070;29;20495;-57
2022/07/27 22:54:01;;;;;;;11.40;7.18;;;;;;;20.22;47.72;97095.34;10212237;29;20061;-57
2022/07/27 22:59:20;;;;;;;10.73;6.43;;;;;;;20.20;47.88;97085.97;10225006;29;20415;-58
2022/07/27 23:04:40;;;;;;;9.90;6.57;;;;;;;20.20;47.91;97086.75;10224937;29;20102;-58
2022/07/27 23:09:59;;;;;;;10.48;6.72;;;;;;;20.19;47.52;97092.47;10219253;29;20059;-58
2022/07/27 23:15:18;;;;;;;9.35;6.07;;;;;;;20.13;47.62;97086.44;10209227;29;20396;-58
2022/07/27 23:20:38;;;;;;;8.60;6.05;;;;;;;20.12;47.79;97091.06;10232833;28;20051;-58
2022/07/27 23:25:57;;;;;;;10.52;6.35;;;;;;;20.12;47.72;97090.28;10219340;29;20063;-58
2022/07/27 23:31:17;;;;;;;9.13;5.57;;;;;;;20.13;47.77;97097.25;10220617;29;20056;-58
2022/07/27 23:36:36;;;;;;;9.80;5.97;;;;;;;20.11;47.72;97089.47;10219651;29;20103;-58
2022/07/27 23:41:55;;;;;;;10.05;5.43;;;;;;;20.10;47.70;97087.09;10219393;29;20052;-58
2022/07/27 23:47:14;;;;;;;7.03;4.90;;;;;;;20.09;47.75;97085.50;10243844;28;20055;-57
2022/07/27 23:52:34;;;;;;;6.50;4.30;;;;;;;20.07;47.52;97083.13;10208838;29;20052;-58
2022/07/27 23:57:53;;;;;;;7.82;4.28;;;;;;;20.07;47.57;97082.31;10231436;28;20054;-58
